Time;durP1;ratioP1;P1;durP2;ratioP2;P2;SDS_P1;SDS_P2;PMS_P1;PMS_P2;Temp;Humidity;BMP_temperature;BMP_pressure;BME280_temperature;BME280_humidity;BME280_pressure;Samples;Min_cycle;Max_cycle;Signal;HPM_P1;HPM_P2
2022/05/01 00:00:41;;;;;;;17.97;10.10;;;;;;;;;;5023405;28;20214;-79
2022/05/01 00:03:08;;;;;;;16.47;10.00;;;;;;;;;;5023731;28;20291;-77
2022/05/01 00:05:35;;;;;;;17.57;9.60;;;;;;;;;;5025557;28;20200;-80
2022/05/01 00:08:04;;;;;;;19.47;10.23;;;;;;;;;;5022680;28;20671;-79
2022/05/01 00:10:32;;;;;;;15.33;9.97;;;;;;;;;;5021984;28;20295;-79
2022/05/01 00:12:59;;;;;;;17.07;10.50;;;;;;;;;;5025457;28;21443;-79
2022/05/01 00:15:27;;;;;;;18.23;10.90;;;;;;;;;;5020635;28;20593;-77
2022/05/01 00:17:54;;;;;;;17.87;10.40;;;;;;;;;;5020413;28;20719;-78
2022/05/01 00:20:22;;;;;;;20.70;10.53;;;;;;;;;;5021203;28;20682;-80
2022/05/01 00:22:49;;;;;;;17.83;10.80;;;;;;;;;;5021516;28;20228;-79
2022/05/01 00:25:16;;;;;;;20.13;11.00;;;;;;;;;;5026250;28;20207;-80
2022/05/01 00:27:44;;;;;;;22.50;10.70;;;;;;;;;;5021543;28;20541;-78
2022/05/01 00:30:13;;;;;;;16.17;10.33;;;;;;;;;;5021092;28;20290;-80
2022/05/01 00:38:10;;;;;;;15.87;10.47;;;;;;;;;;5007492;28;20196;-80
2022/05/01 00:40:37;;;;;;;19.40;10.07;;;;;;;;;;5024168;28;20214;-80
2022/05/01 00:43:06;;;;;;;17.53;9.77;;;;;;;;;;5028228;28;20258;-79
2022/05/01 00:45:34;;;;;;;17.90;10.53;;;;;;;;;;5023337;28;20204;-78
2022/05/01 00:48:01;;;;;;;22.13;10.73;;;;;;;;;;5026696;28;20322;-80
2022/05/01 00:50:28;;;;;;;19.07;11.10;;;;;;;;;;5027010;28;20682;-78
2022/05/01 00:52:55;;;;;;;16.90;10.10;;;;;;;;;;5028624;28;20216;-79
2022/05/01 00:55:23;;;;;;;16.23;10.00;;;;;;;;;;5022367;28;20315;-79
2022/05/01 00:57:50;;;;;;;20.53;10.30;;;;;;;;;;5026714;28;20273;-78
2022/05/01 01:00:19;;;;;;;16.90;10.67;;;;;;;;;;5026609;28;20236;-80
2022/05/01 01:02:47;;;;;;;14.93;10.10;;;;;;;;;;5024365;28;20311;-79
2022/05/01 01:05:14;;;;;;;18.70;10.73;;;;;;;;;;5023802;28;20200;-80
2022/05/01 01:07:42;;;;;;;18.40;10.23;;;;;;;;;;5027386;28;20265;-79
2022/05/01 01:10:09;;;;;;;15.20;9.50;;;;;;;;;;5025830;28;20200;-79
2022/05/01 01:12:55;;;;;;;17.43;10.37;;;;;;;;;;5024601;28;20238;-77
2022/05/01 01:15:24;;;;;;;15.67;10.03;;;;;;;;;;5024920;28;20227;-77
2022/05/01 01:17:54;;;;;;;18.47;10.77;;;;;;;;;;5027456;28;20244;-79
2022/05/01 01:20:23;;;;;;;18.50;10.03;;;;;;;;;;5023877;28;20323;-79
2022/05/01 01:22:52;;;;;;;20.83;9.83;;;;;;;;;;5030498;23;20258;-79
2022/05/01 01:25:22;;;;;;;16.13;9.40;;;;;;;;;;5021933;28;20195;-79
2022/05/01 01:27:49;;;;;;;16.17;9.30;;;;;;;;;;5021269;28;20208;-78
2022/05/01 01:33:04;;;;;;;14.50;9.10;;;;;;;;;;5003751;28;20586;-79
2022/05/01 01:35:35;;;;;;;17.57;9.80;;;;;;;;;;5002802;28;20311;-79
2022/05/01 01:38:03;;;;;;;17.57;10.00;;;;;;;;;;5004073;28;20204;-79
2022/05/01 01:40:32;;;;;;;16.63;9.20;;;;;;;;;;4998803;28;20212;-79
2022/05/01 01:43:00;;;;;;;18.17;9.60;;;;;;;;;;4999312;28;20221;-79
2022/05/01 01:45:29;;;;;;;15.47;9.27;;;;;;;;;;4998711;28;20297;-80
2022/05/01 01:47:57;;;;;;;14.13;8.90;;;;;;;;;;5002831;28;20204;-79
2022/05/01 01:50:25;;;;;;;15.83;8.73;;;;;;;;;;5000140;28;20209;-79
2022/05/01 01:52:53;;;;;;;16.20;9.13;;;;;;;;;;5004619;28;20710;-79
2022/05/01 01:55:21;;;;;;;14.37;8.97;;;;;;;;;;5004850;28;20229;-79
2022/05/01 01:57:49;;;;;;;16.60;9.77;;;;;;;;;;5002493;28;20251;-78
2022/05/01 02:00:16;;;;;;;17.50;9.67;;;;;;;;;;5008098;28;20212;-79
2022/05/01 02:02:43;;;;;;;14.93;8.90;;;;;;;;;;5005241;28;20287;-78
2022/05/01 02:05:10;;;;;;;19.30;9.63;;;;;;;;;;5001941;28;20205;-78
2022/05/01 02:07:38;;;;;;;15.13;10.00;;;;;;;;;;5004927;28;20431;-78
2022/05/01 02:10:05;;;;;;;15.27;9.53;;;;;;;;;;5004545;28;20287;-78
2022/05/01 02:12:34;;;;;;;16.93;10.80;;;;;;;;;;5003946;28;20283;-79
2022/05/01 02:15:01;;;;;;;22.30;9.73;;;;;;;;;;5012128;28;20311;-79
2022/05/01 02:17:28;;;;;;;17.50;9.07;;;;;;;;;;5010045;28;20205;-80
2022/05/01 02:19:56;;;;;;;17.53;9.30;;;;;;;;;;5011477;28;20207;-80
2022/05/01 02:22:26;;;;;;;14.93;9.23;;;;;;;;;;5011430;28;20232;-80
2022/05/01 02:24:55;;;;;;;15.43;8.37;;;;;;;;;;5007048;28;20214;-79
2022/05/01 02:27:22;;;;;;;14.60;9.27;;;;;;;;;;5009203;28;20300;-78
2022/05/01 02:29:51;;;;;;;18.73;9.43;;;;;;;;;;5011695;28;20215;-79
2022/05/01 02:32:18;;;;;;;19.57;9.83;;;;;;;;;;5009695;28;20230;-79
2022/05/01 02:34:46;;;;;;;16.73;9.80;;;;;;;;;;5008820;28;20235;-81
2022/05/01 02:37:13;;;;;;;16.93;9.90;;;;;;;;;;5009451;28;20205;-81
2022/05/01 02:39:40;;;;;;;17.17;9.67;;;;;;;;;;5010178;28;20201;-80
2022/05/01 02:42:08;;;;;;;18.80;10.10;;;;;;;;;;5008357;28;20296;-79
2022/05/01 02:44:35;;;;;;;16.50;8.83;;;;;;;;;;5010788;28;20204;-79
2022/05/01 02:47:05;;;;;;;18.20;9.17;;;;;;;;;;5007163;28;20630;-79
2022/05/01 02:49:32;;;;;;;14.27;8.97;;;;;;;;;;5007378;28;20264;-79
2022/05/01 02:51:59;;;;;;;16.63;8.50;;;;;;;;;;5012169;28;20223;-79
2022/05/01 02:54:27;;;;;;;12.53;8.70;;;;;;;;;;5013519;28;20258;-78
2022/05/01 02:56:54;;;;;;;15.17;8.53;;;;;;;;;;5010361;28;20240;-79
2022/05/01 02:59:21;;;;;;;23.70;9.40;;;;;;;;;;5009787;28;20303;-78
2022/05/01 03:01:49;;;;;;;15.03;8.87;;;;;;;;;;5014067;28;20255;-80
2022/05/01 03:04:17;;;;;;;13.03;8.53;;;;;;;;;;5009929;28;20217;-79
2022/05/01 03:06:45;;;;;;;14.83;9.00;;;;;;;;;;5010102;28;20201;-80
2022/05/01 03:09:12;;;;;;;15.67;8.97;;;;;;;;;;5011053;28;20251;-79
2022/05/01 03:11:39;;;;;;;14.33;9.07;;;;;;;;;;5009827;28;20216;-79
2022/05/01 03:14:09;;;;;;;13.93;8.63;;;;;;;;;;5013258;28;20223;-80
2022/05/01 03:16:37;;;;;;;16.23;8.97;;;;;;;;;;5012832;28;20200;-79
2022/05/01 03:24:35;;;;;;;19.37;8.23;;;;;;;;;;5018645;28;20219;-78
2022/05/01 03:27:02;;;;;;;14.10;9.37;;;;;;;;;;5015853;28;20196;-79
2022/05/01 03:29:29;;;;;;;11.93;8.47;;;;;;;;;;5012856;28;20204;-79
2022/05/01 03:31:57;;;;;;;13.27;8.13;;;;;;;;;;5014444;28;20307;-79
2022/05/01 03:34:26;;;;;;;16.13;8.30;;;;;;;;;;5006605;28;20196;-78
2022/05/01 03:36:55;;;;;;;18.00;8.43;;;;;;;;;;5002723;28;20227;-79
2022/05/01 03:39:22;;;;;;;16.83;8.93;;;;;;;;;;5002869;28;20594;-78
2022/05/01 03:41:49;;;;;;;15.03;8.50;;;;;;;;;;5005591;28;20703;-78
2022/05/01 03:44:16;;;;;;;13.13;8.03;;;;;;;;;;5006401;28;20307;-79
2022/05/01 03:46:44;;;;;;;13.90;9.23;;;;;;;;;;5005673;28;20688;-78
2022/05/01 03:49:11;;;;;;;14.47;8.37;;;;;;;;;;5005973;28;20397;-79
2022/05/01 03:51:38;;;;;;;17.13;8.60;;;;;;;;;;5003464;28;20311;-79
2022/05/01 03:54:06;;;;;;;14.10;8.47;;;;;;;;;;5006058;28;20308;-78
2022/05/01 03:56:34;;;;;;;15.93;8.17;;;;;;;;;;5003771;28;20319;-79
2022/05/01 03:59:04;;;;;;;15.40;8.53;;;;;;;;;;5006110;28;20227;-78
2022/05/01 04:01:33;;;;;;;16.37;8.27;;;;;;;;;;5004706;28;20306;-80
2022/05/01 04:04:00;;;;;;;14.70;8.00;;;;;;;;;;5006060;28;20283;-77
2022/05/01 04:06:27;;;;;;;18.07;8.30;;;;;;;;;;5004588;28;20271;-79
2022/05/01 04:08:55;;;;;;;18.00;8.13;;;;;;;;;;5004037;28;20231;-79
2022/05/01 04:11:25;;;;;;;20.80;8.27;;;;;;;;;;5000052;28;20228;-80
2022/05/01 04:13:52;;;;;;;12.80;8.03;;;;;;;;;;5004161;28;20216;-79
2022/05/01 04:16:19;;;;;;;11.27;7.70;;;;;;;;;;5003881;28;20219;-80
2022/05/01 04:18:46;;;;;;;12.90;8.00;;;;;;;;;;5004449;28;20205;-78
2022/05/01 04:21:14;;;;;;;14.07;7.63;;;;;;;;;;5004416;28;20221;-79
2022/05/01 04:23:41;;;;;;;13.30;8.10;;;;;;;;;;5002347;28;20254;-79
2022/05/01 04:26:09;;;;;;;12.70;8.23;;;;;;;;;;5004604;28;20197;-78
2022/05/01 04:28:37;;;;;;;15.30;7.97;;;;;;;;;;5006693;28;20204;-77
2022/05/01 04:31:04;;;;;;;13.33;8.43;;;;;;;;;;5007515;28;20694;-78
2022/05/01 04:33:31;;;;;;;12.00;7.23;;;;;;;;;;5001939;28;20208;-79
2022/05/01 04:35:59;;;;;;;14.43;7.97;;;;;;;;;;5003420;28;20224;-78
2022/05/01 04:38:27;;;;;;;17.23;8.03;;;;;;;;;;4999582;28;20242;-78
2022/05/01 04:40:55;;;;;;;13.30;7.37;;;;;;;;;;5002409;28;20208;-79
2022/05/01 04:43:23;;;;;;;10.10;6.80;;;;;;;;;;5007464;28;20204;-79
2022/05/01 04:45:52;;;;;;;9.57;6.80;;;;;;;;;;5005256;28;20288;-79
2022/05/01 04:48:19;;;;;;;10.67;6.60;;;;;;;;;;5005337;28;20211;-78
2022/05/01 04:50:49;;;;;;;10.10;6.87;;;;;;;;;;5001495;28;20205;-78
2022/05/01 04:53:17;;;;;;;13.13;8.13;;;;;;;;;;5001042;28;20737;-80
2022/05/01 04:55:45;;;;;;;16.33;7.80;;;;;;;;;;5006846;28;20319;-79
2022/05/01 04:58:14;;;;;;;12.63;7.57;;;;;;;;;;5001082;28;20212;-77
2022/05/01 05:00:42;;;;;;;13.27;7.80;;;;;;;;;;5006287;28;20200;-79
2022/05/01 05:03:11;;;;;;;15.17;7.83;;;;;;;;;;5000722;28;20223;-81
2022/05/01 05:05:38;;;;;;;13.97;8.20;;;;;;;;;;5007368;28;20209;-78
2022/05/01 05:10:51;;;;;;;18.70;10.73;;;;;;;;;;5005534;28;20199;-80
2022/05/01 05:13:22;;;;;;;16.17;8.67;;;;;;;;;;5002421;28;20219;-80
2022/05/01 05:15:50;;;;;;;14.43;8.43;;;;;;;;;;5001092;28;20238;-79
2022/05/01 05:18:18;;;;;;;14.97;8.13;;;;;;;;;;5004925;28;20212;-80
2022/05/01 05:20:45;;;;;;;14.80;7.70;;;;;;;;;;5003985;28;20209;-79
2022/05/01 05:23:12;;;;;;;13.87;7.67;;;;;;;;;;5001203;28;20585;-80
2022/05/01 05:25:40;;;;;;;15.73;8.57;;;;;;;;;;5003059;28;20204;-80
2022/05/01 05:28:08;;;;;;;16.03;8.70;;;;;;;;;;4998397;28;20295;-80
2022/05/01 05:30:35;;;;;;;13.43;8.70;;;;;;;;;;5000226;28;20299;-81
2022/05/01 05:33:02;;;;;;;11.73;7.83;;;;;;;;;;5002095;28;20224;-80
2022/05/01 05:35:31;;;;;;;15.37;8.50;;;;;;;;;;5003216;28;20224;-80
2022/05/01 05:37:58;;;;;;;14.67;7.10;;;;;;;;;;5001097;28;20291;-79
2022/05/01 05:40:25;;;;;;;13.33;7.53;;;;;;;;;;4999767;28;20309;-79
2022/05/01 05:42:52;;;;;;;14.37;7.80;;;;;;;;;;5002209;28;20576;-79
2022/05/01 05:45:19;;;;;;;11.10;7.50;;;;;;;;;;5002433;28;20773;-79
2022/05/01 05:47:47;;;;;;;17.50;8.10;;;;;;;;;;5001289;28;20200;-80
2022/05/01 05:50:14;;;;;;;15.37;7.77;;;;;;;;;;4998351;28;20226;-79
2022/05/01 05:52:42;;;;;;;15.20;7.87;;;;;;;;;;5001824;28;20231;-79
2022/05/01 05:55:10;;;;;;;17.77;8.83;;;;;;;;;;4998416;28;20574;-79
2022/05/01 05:57:37;;;;;;;13.00;7.83;;;;;;;;;;5001571;28;20208;-79
2022/05/01 06:00:05;;;;;;;13.83;8.00;;;;;;;;;;4999601;28;20205;-79
2022/05/01 06:02:32;;;;;;;12.30;7.30;;;;;;;;;;5002243;28;20673;-79
2022/05/01 06:05:00;;;;;;;17.53;7.37;;;;;;;;;;5003301;28;20573;-79
2022/05/01 06:07:27;;;;;;;14.27;7.57;;;;;;;;;;5002195;28;20203;-79
2022/05/01 06:09:56;;;;;;;14.47;7.90;;;;;;;;;;5004452;28;20201;-78
2022/05/01 06:12:23;;;;;;;15.67;8.67;;;;;;;;;;5002844;28;20238;-79
2022/05/01 06:14:50;;;;;;;12.37;8.20;;;;;;;;;;5000431;28;20319;-79
2022/05/01 06:17:17;;;;;;;12.60;7.47;;;;;;;;;;5002475;28;20314;-79
2022/05/01 06:19:44;;;;;;;15.37;7.60;;;;;;;;;;5005071;28;20319;-79
2022/05/01 06:22:11;;;;;;;15.63;7.67;;;;;;;;;;5003437;28;20252;-79
2022/05/01 06:24:38;;;;;;;14.07;7.70;;;;;;;;;;5002536;28;20212;-79
2022/05/01 06:27:07;;;;;;;11.43;6.73;;;;;;;;;;5002356;28;20510;-79
2022/05/01 06:29:34;;;;;;;12.50;6.70;;;;;;;;;;5002491;28;20215;-79
2022/05/01 06:32:01;;;;;;;11.50;6.53;;;;;;;;;;5005618;28;20778;-79
2022/05/01 06:34:30;;;;;;;17.87;6.50;;;;;;;;;;5006789;28;20204;-79
2022/05/01 06:36:57;;;;;;;11.67;6.57;;;;;;;;;;5002428;28;20323;-79
2022/05/01 06:39:24;;;;;;;13.07;6.80;;;;;;;;;;5001698;28;20369;-79
2022/05/01 06:41:51;;;;;;;13.53;6.70;;;;;;;;;;5004437;28;20311;-79
2022/05/01 06:44:20;;;;;;;13.13;7.20;;;;;;;;;;5003179;28;20211;-79
2022/05/01 06:46:47;;;;;;;12.80;7.17;;;;;;;;;;4999107;28;20293;-79
2022/05/01 06:49:14;;;;;;;9.73;6.40;;;;;;;;;;5002255;28;20737;-79
2022/05/01 06:51:41;;;;;;;15.17;6.97;;;;;;;;;;5005963;28;20239;-78
2022/05/01 06:54:10;;;;;;;9.87;6.17;;;;;;;;;;5004559;28;20269;-78
2022/05/01 06:56:37;;;;;;;14.97;6.43;;;;;;;;;;5010537;28;20224;-79
2022/05/01 06:59:04;;;;;;;12.60;6.83;;;;;;;;;;5009556;28;20200;-79
2022/05/01 07:01:33;;;;;;;10.67;6.40;;;;;;;;;;5006448;28;20270;-79
2022/05/01 07:04:00;;;;;;;9.27;5.60;;;;;;;;;;5002697;28;20201;-79
2022/05/01 07:06:27;;;;;;;10.97;5.83;;;;;;;;;;5005574;28;20777;-79
2022/05/01 07:08:54;;;;;;;9.47;6.00;;;;;;;;;;5005070;28;20225;-79
2022/05/01 07:11:21;;;;;;;12.53;5.50;;;;;;;;;;5004601;28;20256;-78
2022/05/01 07:13:49;;;;;;;14.93;5.27;;;;;;;;;;5007594;28;20215;-78
2022/05/01 07:16:19;;;;;;;10.03;4.63;;;;;;;;;;5004112;28;20312;-79
2022/05/01 07:18:48;;;;;;;8.80;4.50;;;;;;;;;;5007264;28;20201;-78
2022/05/01 07:21:15;;;;;;;8.57;4.67;;;;;;;;;;5011936;28;20228;-79
2022/05/01 07:23:42;;;;;;;8.10;4.47;;;;;;;;;;5003334;28;20208;-78
2022/05/01 07:26:09;;;;;;;9.20;4.87;;;;;;;;;;5006955;28;20200;-77
2022/05/01 07:28:37;;;;;;;7.53;4.70;;;;;;;;;;5008133;28;20214;-79
2022/05/01 07:31:04;;;;;;;9.50;4.90;;;;;;;;;;5006966;28;20220;-78
2022/05/01 07:33:31;;;;;;;12.17;5.33;;;;;;;;;;5008106;28;20220;-78
2022/05/01 07:36:00;;;;;;;9.30;5.33;;;;;;;;;;5003686;28;20231;-79
2022/05/01 07:38:28;;;;;;;11.07;5.17;;;;;;;;;;5008235;28;20640;-80
2022/05/01 07:40:55;;;;;;;10.20;4.93;;;;;;;;;;5005977;28;20277;-79
2022/05/01 07:43:22;;;;;;;10.30;5.30;;;;;;;;;;5010561;28;20216;-79
2022/05/01 07:45:49;;;;;;;8.73;4.90;;;;;;;;;;5004556;28;20201;-78
2022/05/01 07:48:16;;;;;;;14.70;5.37;;;;;;;;;;5004252;28;20282;-78
2022/05/01 07:50:43;;;;;;;9.83;5.40;;;;;;;;;;5002977;28;20244;-78
2022/05/01 07:53:13;;;;;;;8.33;4.93;;;;;;;;;;5006783;28;20663;-77
2022/05/01 07:55:40;;;;;;;11.57;5.23;;;;;;;;;;5008350;28;20720;-78
2022/05/01 07:58:07;;;;;;;9.33;5.13;;;;;;;;;;5009296;28;20730;-77
2022/05/01 08:00:34;;;;;;;10.37;5.63;;;;;;;;;;5005273;28;20308;-78
2022/05/01 08:05:47;;;;;;;8.77;5.10;;;;;;;;;;5003932;28;20208;-77
2022/05/01 08:08:15;;;;;;;10.23;5.43;;;;;;;;;;5005070;28;20205;-79
2022/05/01 08:10:42;;;;;;;9.57;5.47;;;;;;;;;;5001876;28;20659;-79
2022/05/01 08:13:10;;;;;;;11.13;5.67;;;;;;;;;;5000822;28;20211;-79
2022/05/01 08:15:37;;;;;;;11.93;5.57;;;;;;;;;;5005772;28;20200;-79
2022/05/01 08:21:07;;;;;;;7.83;5.23;;;;;;;;;;4975706;28;20208;-79
2022/05/01 08:23:36;;;;;;;11.90;6.00;;;;;;;;;;5003620;28;20215;-80
2022/05/01 08:26:04;;;;;;;10.03;5.60;;;;;;;;;;4997294;28;20291;-80
2022/05/01 08:28:31;;;;;;;10.10;5.40;;;;;;;;;;4999425;28;20200;-78
2022/05/01 08:30:58;;;;;;;9.90;5.27;;;;;;;;;;4999556;28;20315;-78
2022/05/01 08:33:25;;;;;;;13.17;5.67;;;;;;;;;;4996036;28;20215;-79
2022/05/01 08:35:53;;;;;;;9.63;5.60;;;;;;;;;;5001058;28;20687;-78
2022/05/01 08:38:20;;;;;;;11.07;5.50;;;;;;;;;;5006148;28;21122;-79
2022/05/01 08:40:49;;;;;;;11.40;5.43;;;;;;;;;;5004580;28;20295;-79
2022/05/01 08:43:17;;;;;;;10.73;5.97;;;;;;;;;;5001709;28;20209;-78
2022/05/01 08:45:50;;;;;;;11.17;6.10;;;;;;;;;;5003865;28;20218;-78
2022/05/01 08:48:20;;;;;;;10.30;5.30;;;;;;;;;;5005989;28;20208;-80
2022/05/01 08:50:47;;;;;;;11.57;5.93;;;;;;;;;;5002026;28;20220;-80
2022/05/01 08:53:15;;;;;;;14.93;5.63;;;;;;;;;;5004977;28;20667;-78
2022/05/01 08:55:43;;;;;;;12.20;5.53;;;;;;;;;;5003323;28;20704;-78
2022/05/01 08:58:12;;;;;;;9.17;5.53;;;;;;;;;;5001473;28;20316;-80
2022/05/01 09:00:39;;;;;;;14.47;6.03;;;;;;;;;;5005415;28;20299;-78
2022/05/01 09:03:06;;;;;;;8.83;5.47;;;;;;;;;;5007283;28;20603;-79
2022/05/01 09:05:34;;;;;;;7.90;5.20;;;;;;;;;;5003641;28;20217;-80
2022/05/01 09:08:01;;;;;;;7.47;5.10;;;;;;;;;;5003220;28;20231;-79
2022/05/01 09:10:28;;;;;;;11.77;5.07;;;;;;;;;;5002622;28;20813;-79
2022/05/01 09:12:55;;;;;;;10.27;5.60;;;;;;;;;;5004990;28;20297;-78
2022/05/01 09:15:31;;;;;;;11.63;5.50;;;;;;;;;;4999983;28;20203;-79
2022/05/01 09:18:02;;;;;;;8.83;4.97;;;;;;;;;;5003985;28;20638;-80
2022/05/01 09:20:29;;;;;;;12.77;5.57;;;;;;;;;;4999237;28;20674;-79
2022/05/01 09:22:58;;;;;;;12.07;5.27;;;;;;;;;;4997341;28;20267;-80
2022/05/01 09:25:26;;;;;;;11.07;5.43;;;;;;;;;;4996479;28;20724;-80
2022/05/01 09:27:56;;;;;;;12.73;5.37;;;;;;;;;;4996589;28;20761;-79
2022/05/01 09:30:29;;;;;;;11.93;5.63;;;;;;;;;;5000721;28;20322;-80
2022/05/01 09:32:58;;;;;;;11.07;5.60;;;;;;;;;;5000528;28;20227;-79
2022/05/01 09:35:31;;;;;;;8.50;5.10;;;;;;;;;;4990840;28;20205;-79
2022/05/01 09:38:12;;;;;;;11.57;5.37;;;;;;;;;;5003822;28;20329;-80
2022/05/01 09:40:39;;;;;;;9.43;4.77;;;;;;;;;;5005213;28;20232;-79
2022/05/01 09:43:07;;;;;;;11.40;5.33;;;;;;;;;;5000673;28;20201;-78
2022/05/01 09:45:35;;;;;;;7.97;5.07;;;;;;;;;;4998797;28;20213;-80
2022/05/01 09:48:19;;;;;;;12.33;5.40;;;;;;;;;;4999698;28;20255;-79
2022/05/01 09:50:47;;;;;;;11.07;5.33;;;;;;;;;;4999202;28;20205;-79
2022/05/01 09:53:14;;;;;;;11.80;5.27;;;;;;;;;;5003630;28;20259;-80
2022/05/01 09:55:41;;;;;;;7.90;4.73;;;;;;;;;;5001297;28;20254;-79
2022/05/01 09:58:10;;;;;;;10.03;5.00;;;;;;;;;;5001596;28;20221;-80
2022/05/01 10:00:44;;;;;;;10.30;5.17;;;;;;;;;;5000858;28;20212;-79
2022/05/01 10:03:29;;;;;;;12.33;5.60;;;;;;;;;;4999335;28;20201;-80
2022/05/01 10:05:59;;;;;;;9.53;4.60;;;;;;;;;;5000866;28;20215;-79
2022/05/01 10:08:26;;;;;;;13.23;5.57;;;;;;;;;;5002790;28;20259;-79
2022/05/01 10:10:56;;;;;;;10.43;5.13;;;;;;;;;;4970851;28;20304;-78
2022/05/01 10:13:25;;;;;;;10.47;5.40;;;;;;;;;;4978579;28;20217;-78
2022/05/01 10:15:52;;;;;;;7.53;4.77;;;;;;;;;;4974250;28;20209;-78
2022/05/01 10:18:20;;;;;;;8.90;5.17;;;;;;;;;;4982911;28;20454;-79
2022/05/01 10:20:49;;;;;;;10.17;5.07;;;;;;;;;;4981081;28;20213;-81
2022/05/01 10:23:17;;;;;;;7.77;4.47;;;;;;;;;;4982842;28;20339;-78
2022/05/01 10:25:48;;;;;;;9.43;4.70;;;;;;;;;;4983650;28;20212;-78
2022/05/01 10:28:27;;;;;;;14.37;4.70;;;;;;;;;;4977796;28;21763;-79
2022/05/01 10:33:59;;;;;;;13.87;4.70;;;;;;;;;;4928284;28;20294;-79
2022/05/01 10:36:36;;;;;;;11.00;5.07;;;;;;;;;;4979369;28;20201;-78
2022/05/01 10:39:09;;;;;;;7.83;4.93;;;;;;;;;;4982360;28;20288;-79
2022/05/01 10:41:36;;;;;;;10.53;4.67;;;;;;;;;;4981988;28;20745;-80
2022/05/01 10:44:03;;;;;;;9.57;5.00;;;;;;;;;;4981186;28;20237;-80
2022/05/01 10:46:31;;;;;;;12.83;4.90;;;;;;;;;;4984058;28;20316;-81
2022/05/01 10:49:01;;;;;;;10.27;4.60;;;;;;;;;;4986614;28;20270;-80
2022/05/01 10:51:47;;;;;;;11.87;4.50;;;;;;;;;;4984934;28;20224;-80
2022/05/01 10:54:37;;;;;;;9.20;4.43;;;;;;;;;;4979881;28;20259;-78
2022/05/01 10:57:10;;;;;;;7.40;4.63;;;;;;;;;;4974761;28;20228;-81
2022/05/01 10:59:39;;;;;;;7.77;4.57;;;;;;;;;;4982188;28;20690;-82
2022/05/01 11:02:06;;;;;;;9.50;4.57;;;;;;;;;;4984251;28;20308;-81
2022/05/01 11:04:40;;;;;;;7.50;4.60;;;;;;;;;;4977989;28;20681;-80
2022/05/01 11:07:10;;;;;;;9.27;4.90;;;;;;;;;;4978909;28;20652;-80
2022/05/01 11:09:38;;;;;;;7.93;4.80;;;;;;;;;;4981963;28;20205;-81
2022/05/01 11:12:08;;;;;;;11.93;4.83;;;;;;;;;;4979465;28;20221;-80
2022/05/01 11:14:35;;;;;;;7.80;4.47;;;;;;;;;;4984991;28;20212;-80
2022/05/01 11:17:03;;;;;;;10.07;5.00;;;;;;;;;;4983603;28;20233;-79
2022/05/01 11:19:45;;;;;;;8.50;4.67;;;;;;;;;;4986252;28;20200;-81
2022/05/01 11:22:14;;;;;;;8.67;4.87;;;;;;;;;;4988003;28;20331;-80
2022/05/01 11:24:42;;;;;;;9.90;4.77;;;;;;;;;;4985715;28;20355;-80
2022/05/01 11:27:16;;;;;;;9.93;4.90;;;;;;;;;;4982230;28;20198;-79
2022/05/01 11:30:02;;;;;;;9.63;4.53;;;;;;;;;;4981726;28;20316;-80
2022/05/01 11:32:43;;;;;;;10.27;4.27;;;;;;;;;;4989333;28;20247;-80
2022/05/01 11:35:11;;;;;;;11.57;2.80;;;;;;;;;;4987895;28;20651;-78
2022/05/01 11:37:49;;;;;;;4.37;3.43;;;;;;;;;;4982652;28;20229;-78
2022/05/01 11:40:26;;;;;;;9.47;4.10;;;;;;;;;;4989558;28;20201;-81
2022/05/01 11:42:54;;;;;;;9.17;5.13;;;;;;;;;;4988278;28;20228;-80
2022/05/01 11:45:23;;;;;;;7.83;4.50;;;;;;;;;;4988121;28;20382;-80
2022/05/01 11:47:53;;;;;;;10.07;5.00;;;;;;;;;;4988319;28;20271;-82
2022/05/01 11:50:21;;;;;;;8.90;3.57;;;;;;;;;;4982584;28;20210;-80
2022/05/01 11:52:54;;;;;;;8.70;4.33;;;;;;;;;;4988937;28;20256;-81
2022/05/01 12:02:24;;;;;;;7.80;4.07;;;;;;;;;;4984814;28;20204;-81
2022/05/01 12:03:40;;;;;;;14.60;4.30;;;;;;;;;;4983717;28;20263;-79
2022/05/01 12:06:07;;;;;;;58.70;4.53;;;;;;;;;;4982249;28;20269;-78
2022/05/01 12:08:48;;;;;;;32.43;5.80;;;;;;;;;;4985428;28;20299;-79
2022/05/01 12:11:27;;;;;;;18.30;5.27;;;;;;;;;;4983795;28;20531;-78
2022/05/01 12:14:03;;;;;;;26.90;5.67;;;;;;;;;;4987529;28;20201;-81
2022/05/01 12:16:30;;;;;;;23.00;5.20;;;;;;;;;;4983274;28;20206;-80
2022/05/01 12:18:57;;;;;;;16.77;5.17;;;;;;;;;;4984430;28;20717;-80
2022/05/01 12:21:32;;;;;;;80.23;6.73;;;;;;;;;;4982221;28;20232;-79
2022/05/01 12:24:04;;;;;;;39.10;6.23;;;;;;;;;;4980381;28;20216;-80
2022/05/01 12:26:32;;;;;;;22.50;4.80;;;;;;;;;;4981095;28;20237;-79
2022/05/01 12:29:00;;;;;;;26.73;5.90;;;;;;;;;;4984807;28;20209;-81
2022/05/01 12:31:27;;;;;;;24.03;5.03;;;;;;;;;;4982294;28;20220;-76
2022/05/01 12:33:54;;;;;;;10.07;4.30;;;;;;;;;;4985878;28;20261;-78
2022/05/01 12:36:26;;;;;;;8.27;4.47;;;;;;;;;;4981594;28;20201;-77
2022/05/01 12:39:04;;;;;;;8.77;4.40;;;;;;;;;;4976968;28;20225;-77
2022/05/01 12:44:17;;;;;;;8.97;4.97;;;;;;;;;;4984145;28;21860;-77
2022/05/01 12:46:52;;;;;;;11.47;4.40;;;;;;;;;;4975162;28;20715;-77
2022/05/01 12:49:26;;;;;;;7.27;4.47;;;;;;;;;;4980741;28;20691;-77
2022/05/01 12:51:53;;;;;;;8.90;4.50;;;;;;;;;;4977175;28;20317;-77
2022/05/01 12:54:22;;;;;;;10.00;4.40;;;;;;;;;;4985565;28;20672;-78
2022/05/01 12:56:49;;;;;;;10.40;4.50;;;;;;;;;;4983066;28;20288;-77
2022/05/01 12:59:27;;;;;;;10.00;4.53;;;;;;;;;;4979015;28;20235;-78
2022/05/01 13:01:55;;;;;;;10.17;4.60;;;;;;;;;;4982816;28;20232;-78
2022/05/01 13:04:24;;;;;;;8.47;4.60;;;;;;;;;;4983986;28;20205;-78
2022/05/01 13:06:51;;;;;;;10.00;4.80;;;;;;;;;;4981511;28;20205;-79
2022/05/01 13:09:19;;;;;;;11.33;4.40;;;;;;;;;;4986451;28;20208;-78
2022/05/01 13:12:00;;;;;;;6.43;4.00;;;;;;;;;;4982862;28;20699;-76
2022/05/01 13:14:32;;;;;;;7.03;4.37;;;;;;;;;;4981474;28;20287;-77
2022/05/01 13:17:08;;;;;;;8.60;4.47;;;;;;;;;;4979671;28;20251;-79
2022/05/01 13:19:38;;;;;;;7.77;5.10;;;;;;;;;;4983679;28;20248;-77
2022/05/01 13:22:06;;;;;;;12.07;4.73;;;;;;;;;;4983314;28;20243;-79
2022/05/01 13:24:46;;;;;;;9.77;4.67;;;;;;;;;;4993985;23;20229;-83
2022/05/01 13:27:29;;;;;;;9.77;4.67;;;;;;;;;;4988907;28;20231;-83
2022/05/01 13:30:02;;;;;;;8.83;4.67;;;;;;;;;;4985561;28;20301;-82
2022/05/01 13:32:56;;;;;;;14.17;4.53;;;;;;;;;;4985308;28;20301;-82
2022/05/01 13:35:36;;;;;;;11.20;4.40;;;;;;;;;;4972468;28;20280;-83
2022/05/01 13:38:04;;;;;;;9.37;4.23;;;;;;;;;;4967672;28;20639;-82
2022/05/01 13:46:06;;;;;;;7.07;4.50;;;;;;;;;;4966367;28;20206;-81
2022/05/01 13:48:35;;;;;;;8.37;4.10;;;;;;;;;;4968926;28;20217;-82
2022/05/01 13:51:04;;;;;;;9.07;4.60;;;;;;;;;;4970573;28;20225;-82
2022/05/01 13:53:34;;;;;;;9.47;4.47;;;;;;;;;;4969074;28;20813;-81
2022/05/01 13:56:04;;;;;;;6.70;4.23;;;;;;;;;;4964259;28;20221;-82
2022/05/01 13:58:33;;;;;;;6.80;4.57;;;;;;;;;;4968261;28;20241;-82
2022/05/01 14:01:02;;;;;;;7.70;4.47;;;;;;;;;;4967922;28;20225;-82
2022/05/01 14:03:30;;;;;;;9.53;4.97;;;;;;;;;;4964130;28;20280;-82
2022/05/01 14:05:59;;;;;;;10.17;5.03;;;;;;;;;;4963725;28;20723;-82
2022/05/01 14:08:26;;;;;;;10.53;4.93;;;;;;;;;;4966976;28;20449;-82
2022/05/01 14:10:53;;;;;;;14.10;5.03;;;;;;;;;;4967025;28;20210;-82
2022/05/01 14:13:21;;;;;;;12.67;4.93;;;;;;;;;;4968233;28;20670;-82
2022/05/01 14:15:48;;;;;;;10.67;5.30;;;;;;;;;;4964892;28;20284;-82
2022/05/01 14:18:19;;;;;;;9.13;5.23;;;;;;;;;;4965092;28;20308;-82
2022/05/01 14:20:46;;;;;;;11.20;5.10;;;;;;;;;;4969305;28;20229;-82
2022/05/01 14:23:14;;;;;;;10.73;5.10;;;;;;;;;;4968101;28;20283;-82
2022/05/01 14:25:41;;;;;;;9.43;4.67;;;;;;;;;;4965796;28;20214;-82
2022/05/01 14:28:09;;;;;;;8.60;4.73;;;;;;;;;;4966386;28;20206;-82
2022/05/01 14:30:37;;;;;;;8.73;5.10;;;;;;;;;;4967039;28;20301;-82
2022/05/01 14:33:11;;;;;;;9.33;4.87;;;;;;;;;;4962114;28;20237;-82
2022/05/01 14:35:40;;;;;;;12.63;5.23;;;;;;;;;;4965466;28;20217;-82
2022/05/01 14:38:08;;;;;;;6.47;2.60;;;;;;;;;;4967032;28;20238;-79
2022/05/01 14:40:36;;;;;;;7.73;4.27;;;;;;;;;;4968766;28;20220;-81
2022/05/01 14:43:14;;;;;;;8.83;4.67;;;;;;;;;;4967877;28;20218;-80
2022/05/01 14:45:42;;;;;;;9.07;4.63;;;;;;;;;;4965877;28;20210;-80
2022/05/01 14:48:16;;;;;;;12.03;5.10;;;;;;;;;;4971639;28;20556;-82
2022/05/01 14:50:45;;;;;;;11.50;5.03;;;;;;;;;;4970841;28;20201;-81
2022/05/01 14:53:14;;;;;;;8.93;5.03;;;;;;;;;;4973283;28;20733;-81
2022/05/01 14:55:42;;;;;;;27.80;4.33;;;;;;;;;;4969893;28;20201;-80
2022/05/01 15:06:17;;;;;;;15.77;4.37;;;;;;;;;;4976515;28;20218;-81
2022/05/01 15:06:31;;;;;;;8.13;5.00;;;;;;;;;;4969248;28;20277;-82
2022/05/01 15:09:03;;;;;;;9.63;4.93;;;;;;;;;;4969281;28;21040;-81
2022/05/01 15:11:30;;;;;;;12.67;5.73;;;;;;;;;;4969048;28;20257;-81
2022/05/01 15:13:57;;;;;;;13.03;6.03;;;;;;;;;;4970363;28;20721;-81
2022/05/01 15:16:28;;;;;;;8.30;5.20;;;;;;;;;;4972988;28;20309;-82
2022/05/01 15:19:07;;;;;;;8.70;5.10;;;;;;;;;;4969654;28;20240;-82
2022/05/01 15:24:42;;;;;;;8.40;5.10;;;;;;;;;;4968855;28;20256;-81
2022/05/01 15:27:11;;;;;;;11.57;5.30;;;;;;;;;;4967870;28;20301;-82
2022/05/01 15:29:41;;;;;;;8.47;4.80;;;;;;;;;;4969498;28;20591;-82
2022/05/01 15:32:09;;;;;;;13.47;5.97;;;;;;;;;;4969974;28;20209;-81